createdAt,value
2022-07-27T00:00:53.540Z,17.18
2022-07-27T00:03:20.940Z,17.11
2022-07-27T00:05:47.978Z,17.11
2022-07-27T00:08:15.133Z,17.19
2022-07-27T00:10:42.252Z,17.35
2022-07-27T00:13:09.272Z,17.21
2022-07-27T00:15:36.315Z,17.08
2022-07-27T00:18:03.803Z,17.07
2022-07-27T00:20:32.352Z,16.63
2022-07-27T00:22:59.636Z,17.07
2022-07-27T00:25:29.599Z,17.01
2022-07-27T00:27:59.185Z,17.03
2022-07-27T00:30:26.569Z,17.07
2022-07-27T00:32:53.682Z,17.03
2022-07-27T00:35:20.971Z,16.93
2022-07-27T00:37:48.024Z,16.90
2022-07-27T00:40:15.315Z,16.86
2022-07-27T00:42:42.322Z,16.89
2022-07-27T00:45:09.739Z,17.01
2022-07-27T00:47:36.761Z,17.09
2022-07-27T00:50:04.907Z,16.99
2022-07-27T00:52:32.212Z,16.47
2022-07-27T00:55:00.032Z,16.81
2022-07-27T00:57:30.262Z,16.56
2022-07-27T00:59:57.287Z,16.75
2022-07-27T01:02:26.338Z,16.53
2022-07-27T01:04:56.886Z,16.61
2022-07-27T01:07:24.843Z,16.57
2022-07-27T01:09:58.259Z,16.39
2022-07-27T01:12:29.590Z,16.65
2022-07-27T01:14:58.128Z,16.76
2022-07-27T01:17:27.211Z,16.73
2022-07-27T01:19:54.313Z,16.24
2022-07-27T01:22:21.332Z,16.59
2022-07-27T01:24:50.224Z,16.60
2022-07-27T01:27:17.274Z,16.65
2022-07-27T01:29:44.549Z,16.69
2022-07-27T01:32:11.783Z,16.71
2022-07-27T01:34:38.962Z,16.72
2022-07-27T01:37:06.425Z,16.69
2022-07-27T01:39:34.118Z,16.66
2022-07-27T01:42:01.617Z,16.74
2022-07-27T01:44:29.021Z,16.74
2022-07-27T01:46:56.134Z,16.64
2022-07-27T01:49:23.259Z,16.83
2022-07-27T01:51:50.392Z,16.64
2022-07-27T01:54:17.974Z,16.69
2022-07-27T01:56:45.272Z,16.69
2022-07-27T01:59:16.813Z,16.60
2022-07-27T02:01:44.936Z,16.65
2022-07-27T02:04:12.397Z,16.63
2022-07-27T02:06:40.529Z,16.53
2022-07-27T02:09:07.625Z,16.41
2022-07-27T02:11:53.264Z,16.42
2022-07-27T02:14:21.171Z,16.53
2022-07-27T02:16:50.781Z,16.43
2022-07-27T02:19:18.379Z,16.45
2022-07-27T02:21:45.906Z,16.36
2022-07-27T02:24:13.014Z,16.22
2022-07-27T02:26:40.059Z,16.29
2022-07-27T02:29:07.115Z,16.10
2022-07-27T02:31:34.163Z,16.04
2022-07-27T02:34:01.188Z,16.00
2022-07-27T02:36:29.448Z,15.75
2022-07-27T02:38:57.325Z,15.87
2022-07-27T02:41:24.754Z,15.97
2022-07-27T02:43:51.912Z,15.88
2022-07-27T02:46:19.206Z,15.55
2022-07-27T02:48:46.636Z,15.96
2022-07-27T02:51:14.959Z,15.88
2022-07-27T02:53:42.073Z,15.74
2022-07-27T02:56:09.205Z,15.58
2022-07-27T02:58:36.767Z,15.71
2022-07-27T03:01:05.006Z,15.76
2022-07-27T03:03:32.964Z,15.69
2022-07-27T03:06:03.882Z,15.57
2022-07-27T03:08:30.902Z,15.61
2022-07-27T03:10:57.998Z,15.60
2022-07-27T03:13:26.495Z,15.32
2022-07-27T03:15:53.618Z,15.70
2022-07-27T03:18:21.571Z,15.61
2022-07-27T03:20:48.686Z,15.39
2022-07-27T03:23:17.921Z,15.24
2022-07-27T03:25:45.125Z,15.58
2022-07-27T03:28:12.126Z,15.61
2022-07-27T03:30:39.240Z,15.49
2022-07-27T03:33:06.490Z,15.35
2022-07-27T03:35:33.692Z,15.28
2022-07-27T03:38:00.799Z,15.42
2022-07-27T03:40:29.520Z,15.28
2022-07-27T03:42:57.024Z,15.20
2022-07-27T03:45:24.571Z,15.21
2022-07-27T03:47:51.788Z,15.08
2022-07-27T03:50:19.678Z,15.18
2022-07-27T03:52:46.728Z,14.98
2022-07-27T03:55:13.865Z,14.89
2022-07-27T03:57:41.014Z,14.74
2022-07-27T04:00:12.448Z,14.84
2022-07-27T04:02:42.751Z,14.83
2022-07-27T04:05:10.534Z,14.72
2022-07-27T04:07:37.811Z,14.78
2022-07-27T04:10:05.720Z,14.86
2022-07-27T04:12:36.992Z,14.74
2022-07-27T04:15:05.821Z,14.83
2022-07-27T04:17:55.570Z,14.76
2022-07-27T04:20:19.998Z,14.78
2022-07-27T04:22:47.078Z,14.78
2022-07-27T04:25:14.260Z,14.83
2022-07-27T04:27:41.334Z,14.79
2022-07-27T04:30:09.829Z,14.87
2022-07-27T04:32:37.373Z,14.89
2022-07-27T04:35:05.558Z,14.96
2022-07-27T04:37:33.263Z,14.77
2022-07-27T04:40:00.968Z,15.11
2022-07-27T04:42:29.722Z,15.00
2022-07-27T04:44:57.138Z,15.37
2022-07-27T04:47:24.199Z,15.42
2022-07-27T04:49:51.293Z,15.18
2022-07-27T04:52:18.545Z,15.49
2022-07-27T04:54:46.097Z,15.73
2022-07-27T04:57:13.162Z,15.99
2022-07-27T04:59:40.247Z,16.14
2022-07-27T05:02:07.312Z,16.26
2022-07-27T05:04:35.546Z,15.90
2022-07-27T05:07:02.912Z,15.96
2022-07-27T05:09:29.937Z,15.81
2022-07-27T05:11:56.976Z,16.14
2022-07-27T05:14:24.047Z,15.88
2022-07-27T05:16:51.168Z,15.93
2022-07-27T05:19:18.313Z,15.83
2022-07-27T05:21:45.437Z,16.11
2022-07-27T05:24:12.462Z,16.04
2022-07-27T05:26:39.587Z,16.01
2022-07-27T05:29:06.753Z,15.70
2022-07-27T05:31:33.905Z,16.02
2022-07-27T05:34:01.018Z,15.56
2022-07-27T05:36:28.055Z,15.64
2022-07-27T05:38:55.261Z,15.52
2022-07-27T05:41:26.721Z,15.62
2022-07-27T05:43:55.056Z,15.66
2022-07-27T05:46:22.707Z,15.44
2022-07-27T05:48:50.057Z,15.46
2022-07-27T05:51:17.320Z,15.66
2022-07-27T05:53:44.574Z,15.70
2022-07-27T05:56:11.644Z,15.61
2022-07-27T05:58:38.706Z,15.70
2022-07-27T06:01:05.778Z,15.59
2022-07-27T06:03:33.004Z,15.59
2022-07-27T06:06:19.219Z,15.80
2022-07-27T06:08:46.264Z,16.07
2022-07-27T06:11:14.416Z,16.09
2022-07-27T06:13:41.968Z,16.13
2022-07-27T06:16:10.595Z,16.27
2022-07-27T06:18:37.922Z,16.29
2022-07-27T06:21:05.561Z,16.59
2022-07-27T06:23:32.640Z,16.60
2022-07-27T06:25:59.940Z,16.92
2022-07-27T06:28:26.989Z,16.81
2022-07-27T06:30:54.043Z,16.73
2022-07-27T06:33:27.674Z,16.88
2022-07-27T06:35:57.506Z,16.69
2022-07-27T06:38:27.755Z,16.67
2022-07-27T06:40:56.166Z,17.05
2022-07-27T06:43:26.817Z,17.25
2022-07-27T06:45:54.687Z,16.94
2022-07-27T06:48:22.405Z,17.05
2022-07-27T06:50:50.725Z,17.15
2022-07-27T06:53:21.175Z,17.52
2022-07-27T06:55:49.672Z,17.38
2022-07-27T06:58:17.622Z,17.28
2022-07-27T07:00:45.034Z,17.30
2022-07-27T07:03:12.268Z,17.37
2022-07-27T07:05:45.270Z,17.46
2022-07-27T07:08:14.442Z,17.35
2022-07-27T07:10:42.976Z,17.39
2022-07-27T07:13:11.146Z,17.53
2022-07-27T07:15:40.765Z,17.41
2022-07-27T07:18:08.976Z,17.22
2022-07-27T07:20:36.923Z,17.78
2022-07-27T07:23:04.455Z,18.02
2022-07-27T07:25:32.595Z,18.02
2022-07-27T07:28:00.223Z,17.79
2022-07-27T07:30:28.341Z,18.34
2022-07-27T07:32:56.628Z,18.40
2022-07-27T07:35:24.167Z,18.11
2022-07-27T07:37:51.338Z,18.32
2022-07-27T07:43:07.245Z,18.44
2022-07-27T07:45:38.017Z,18.90
2022-07-27T07:48:14.217Z,19.15
2022-07-27T07:50:41.222Z,19.34
2022-07-27T07:53:08.251Z,19.44
2022-07-27T07:55:35.278Z,18.98
2022-07-27T07:58:02.354Z,19.11
2022-07-27T08:00:30.675Z,18.95
2022-07-27T08:02:58.251Z,18.72
2022-07-27T08:05:26.433Z,18.18
2022-07-27T08:07:54.040Z,18.03
2022-07-27T08:10:22.296Z,17.41
2022-07-27T08:12:52.046Z,17.76
2022-07-27T08:15:19.566Z,17.67
2022-07-27T08:17:46.758Z,17.88
2022-07-27T08:20:15.250Z,18.54
2022-07-27T08:22:42.950Z,18.89
2022-07-27T08:25:12.855Z,19.05
2022-07-27T08:27:40.830Z,19.53
2022-07-27T08:30:10.481Z,19.33
2022-07-27T08:32:52.980Z,19.34
2022-07-27T08:35:20.671Z,18.46
2022-07-27T08:37:48.029Z,18.40
2022-07-27T08:43:05.269Z,18.45
2022-07-27T08:45:33.446Z,18.57
2022-07-27T08:48:01.231Z,19.11
2022-07-27T08:50:30.282Z,19.57
2022-07-27T08:53:09.733Z,19.15
2022-07-27T08:55:44.882Z,19.59
2022-07-27T08:58:13.614Z,19.69
2022-07-27T09:00:43.639Z,20.05
2022-07-27T09:03:18.483Z,19.72
2022-07-27T09:05:55.325Z,19.55
2022-07-27T09:08:25.722Z,19.29
2022-07-27T09:10:58.020Z,18.77
2022-07-27T09:13:31.633Z,18.81
2022-07-27T09:16:21.058Z,18.90
2022-07-27T09:18:57.947Z,19.79
2022-07-27T09:21:25.011Z,19.92
2022-07-27T09:23:54.262Z,20.42
2022-07-27T09:26:34.783Z,20.75
2022-07-27T09:29:11.217Z,21.17
2022-07-27T09:31:42.690Z,21.18
2022-07-27T09:34:10.833Z,21.21
2022-07-27T09:36:56.457Z,20.53
2022-07-27T09:39:25.500Z,20.09
2022-07-27T09:42:00.049Z,20.30
2022-07-27T09:44:44.376Z,20.48
2022-07-27T09:47:27.601Z,19.88
2022-07-27T09:50:18.978Z,20.04
2022-07-27T09:52:47.079Z,19.82
2022-07-27T09:55:14.381Z,20.44
2022-07-27T09:58:15.563Z,20.80
2022-07-27T10:00:56.113Z,20.78
2022-07-27T10:03:23.297Z,20.99
2022-07-27T10:05:50.444Z,20.58
2022-07-27T10:08:18.270Z,20.81
2022-07-27T10:10:45.300Z,21.16
2022-07-27T10:13:12.331Z,21.32
2022-07-27T10:15:42.701Z,20.37
2022-07-27T10:18:19.287Z,19.62
2022-07-27T10:20:47.763Z,19.84
2022-07-27T10:23:28.808Z,19.97
2022-07-27T10:26:14.880Z,20.13
2022-07-27T10:29:03.082Z,20.23
2022-07-27T10:31:33.154Z,20.08
2022-07-27T10:34:02.477Z,20.57
2022-07-27T10:36:29.439Z,20.71
2022-07-27T10:39:02.690Z,20.68
2022-07-27T10:41:32.779Z,20.98
2022-07-27T10:44:17.701Z,20.93
2022-07-27T10:46:50.644Z,20.71
2022-07-27T10:49:18.090Z,20.03
2022-07-27T10:51:45.235Z,20.42
2022-07-27T10:54:29.409Z,21.06
2022-07-27T10:56:59.335Z,21.34
2022-07-27T11:00:07.605Z,20.74
2022-07-27T11:02:42.577Z,20.99
2022-07-27T11:05:42.634Z,20.88
2022-07-27T11:08:36.046Z,20.58
2022-07-27T11:10:48.433Z,20.67
2022-07-27T11:13:20.319Z,21.15
2022-07-27T11:15:59.823Z,21.19
2022-07-27T11:18:34.310Z,21.18
2022-07-27T11:21:26.721Z,20.83
2022-07-27T11:24:04.010Z,20.20
2022-07-27T11:26:38.748Z,20.01
2022-07-27T11:29:11.130Z,20.51
2022-07-27T11:31:54.939Z,20.94
2022-07-27T11:34:31.707Z,21.14
2022-07-27T11:37:02.046Z,21.46
2022-07-27T11:42:21.286Z,21.56
2022-07-27T11:44:49.402Z,21.85
2022-07-27T11:47:20.446Z,21.62
2022-07-27T11:49:47.529Z,21.72
2022-07-27T11:52:17.519Z,21.03
2022-07-27T11:54:51.433Z,20.80
2022-07-27T11:57:22.659Z,20.61
2022-07-27T11:59:49.784Z,20.77
2022-07-27T12:02:23.033Z,20.37
2022-07-27T12:04:51.744Z,20.57
2022-07-27T12:07:29.728Z,21.30
2022-07-27T12:09:59.116Z,21.75
2022-07-27T12:12:28.886Z,21.64
2022-07-27T12:15:44.537Z,21.03
2022-07-27T12:18:06.771Z,21.37
2022-07-27T12:20:35.695Z,21.57
2022-07-27T12:23:08.076Z,21.72
2022-07-27T12:25:36.204Z,22.04
2022-07-27T12:28:17.757Z,22.18
2022-07-27T12:30:48.968Z,22.18
2022-07-27T12:33:37.622Z,22.31
2022-07-27T12:36:07.072Z,21.87
2022-07-27T12:38:45.607Z,22.26
2022-07-27T12:41:29.640Z,22.28
2022-07-27T12:44:17.883Z,22.11
2022-07-27T12:47:30.495Z,21.38
2022-07-27T12:50:03.072Z,20.88
2022-07-27T12:52:30.498Z,21.47
2022-07-27T12:54:57.557Z,21.79
2022-07-27T12:57:54.091Z,22.60
2022-07-27T13:00:15.883Z,22.61
2022-07-27T13:02:43.897Z,22.62
2022-07-27T13:05:13.583Z,22.01
2022-07-27T13:07:47.637Z,22.09
2022-07-27T13:10:18.334Z,21.29
2022-07-27T13:12:47.103Z,21.58
2022-07-27T13:15:15.414Z,21.72
2022-07-27T13:17:43.546Z,21.32
2022-07-27T13:20:12.408Z,22.08
2022-07-27T13:22:40.863Z,22.10
2022-07-27T13:25:16.098Z,22.32
2022-07-27T13:27:45.877Z,22.31
2022-07-27T13:30:14.923Z,22.65
2022-07-27T13:32:42.523Z,22.52
2022-07-27T13:35:12.408Z,21.78
2022-07-27T13:37:40.703Z,21.72
2022-07-27T13:40:09.665Z,21.64
2022-07-27T13:42:36.738Z,21.44
2022-07-27T13:45:10.036Z,20.95
2022-07-27T13:47:38.931Z,20.95
2022-07-27T13:50:13.296Z,21.26
2022-07-27T13:52:46.192Z,21.75
2022-07-27T13:55:15.187Z,22.13
2022-07-27T13:57:43.171Z,22.25
2022-07-27T14:00:10.860Z,22.57
2022-07-27T14:02:38.015Z,23.15
2022-07-27T14:05:06.261Z,22.62
2022-07-27T14:07:34.199Z,22.53
2022-07-27T14:10:19.924Z,22.67
2022-07-27T14:12:47.085Z,22.10
2022-07-27T14:15:14.106Z,22.47
2022-07-27T14:17:41.560Z,22.04
2022-07-27T14:20:09.513Z,21.80
2022-07-27T14:22:36.524Z,21.66
2022-07-27T14:25:03.971Z,21.40
2022-07-27T14:27:33.591Z,21.35
2022-07-27T14:30:06.779Z,21.12
2022-07-27T14:32:34.828Z,21.11
2022-07-27T14:35:02.626Z,21.88
2022-07-27T14:37:29.655Z,22.64
2022-07-27T14:39:56.722Z,22.66
2022-07-27T14:42:25.002Z,22.85
2022-07-27T14:44:52.643Z,23.01
2022-07-27T14:47:19.975Z,22.74
2022-07-27T14:49:47.130Z,23.43
2022-07-27T14:52:14.376Z,23.93
2022-07-27T14:54:42.960Z,23.55
2022-07-27T14:57:10.179Z,23.39
2022-07-27T14:59:37.377Z,23.58
2022-07-27T15:02:05.588Z,23.67
2022-07-27T15:04:33.089Z,23.33
2022-07-27T15:07:00.878Z,22.16
2022-07-27T15:09:30.345Z,21.77
2022-07-27T15:11:58.187Z,21.67
2022-07-27T15:14:25.791Z,22.30
2022-07-27T15:16:54.790Z,22.51
2022-07-27T15:19:22.356Z,21.72
2022-07-27T15:21:50.172Z,21.91
2022-07-27T15:24:17.199Z,22.24
2022-07-27T15:26:44.207Z,21.97
2022-07-27T15:29:14.786Z,21.67
2022-07-27T15:31:43.240Z,21.77
2022-07-27T15:34:10.500Z,22.76
2022-07-27T15:36:43.838Z,22.47
2022-07-27T15:39:13.927Z,22.78
2022-07-27T15:41:41.289Z,23.28
2022-07-27T15:44:08.348Z,23.80
2022-07-27T15:46:35.500Z,24.13
2022-07-27T15:49:02.752Z,23.61
2022-07-27T15:51:30.049Z,22.92
2022-07-27T15:53:57.382Z,22.67
2022-07-27T15:56:24.907Z,22.21
2022-07-27T15:58:52.459Z,22.31
2022-07-27T16:01:21.234Z,21.82
2022-07-27T16:03:49.733Z,22.28
2022-07-27T16:06:20.046Z,21.99
2022-07-27T16:08:47.505Z,21.84
2022-07-27T16:11:14.610Z,21.94
2022-07-27T16:13:42.063Z,21.77
2022-07-27T16:16:27.666Z,22.46
2022-07-27T16:18:59.974Z,22.89
2022-07-27T16:21:54.053Z,22.64
2022-07-27T16:24:24.361Z,23.33
2022-07-27T16:26:51.875Z,24.09
2022-07-27T16:29:19.360Z,24.46
2022-07-27T16:31:46.666Z,24.29
2022-07-27T16:34:13.725Z,23.82
2022-07-27T16:36:40.863Z,23.92
2022-07-27T16:39:08.064Z,25.10
2022-07-27T16:41:35.083Z,25.78
2022-07-27T16:44:02.111Z,26.72
2022-07-27T16:46:29.217Z,27.49
2022-07-27T16:48:56.309Z,28.15
2022-07-27T16:51:23.374Z,27.94
2022-07-27T16:53:50.491Z,28.71
2022-07-27T16:56:17.975Z,28.94
2022-07-27T16:58:45.125Z,28.63
2022-07-27T17:01:22.045Z,27.75
2022-07-27T17:03:54.223Z,28.18
2022-07-27T17:06:21.554Z,29.25
2022-07-27T17:08:49.015Z,29.13
2022-07-27T17:11:17.619Z,29.33
2022-07-27T17:13:50.299Z,30.46
2022-07-27T17:16:18.003Z,31.35
2022-07-27T17:18:45.493Z,30.24
2022-07-27T17:21:13.214Z,28.45
2022-07-27T17:23:41.846Z,28.45
2022-07-27T17:26:10.548Z,28.60
2022-07-27T17:28:41.209Z,28.92
2022-07-27T17:31:10.863Z,28.90
2022-07-27T17:33:39.306Z,29.93
2022-07-27T17:36:12.288Z,30.51
2022-07-27T17:38:43.380Z,30.15
2022-07-27T17:41:11.111Z,29.27
2022-07-27T17:43:41.408Z,28.98
2022-07-27T17:46:10.491Z,28.76
2022-07-27T17:48:38.275Z,28.55
2022-07-27T17:51:07.525Z,28.45
2022-07-27T17:53:34.621Z,28.45
2022-07-27T17:56:02.688Z,27.72
2022-07-27T17:58:30.692Z,26.81
2022-07-27T18:00:58.222Z,25.27
2022-07-27T18:03:25.686Z,23.93
2022-07-27T18:05:52.706Z,22.76
2022-07-27T18:08:19.731Z,22.19
2022-07-27T18:10:46.992Z,21.57
2022-07-27T18:13:14.053Z,21.58
2022-07-27T18:15:47.003Z,21.45
2022-07-27T18:18:15.814Z,21.64
2022-07-27T18:20:47.674Z,21.34
2022-07-27T18:23:15.709Z,21.13
2022-07-27T18:25:44.297Z,21.08
2022-07-27T18:28:13.978Z,21.10
2022-07-27T18:30:41.119Z,20.86
2022-07-27T18:33:08.248Z,20.86
2022-07-27T18:35:35.849Z,20.87
2022-07-27T18:38:04.549Z,20.67
2022-07-27T18:40:31.600Z,20.39
2022-07-27T18:42:58.614Z,20.25
2022-07-27T18:45:34.609Z,20.50
2022-07-27T18:48:01.934Z,19.95
2022-07-27T18:50:29.032Z,20.02
2022-07-27T18:52:57.192Z,19.90
2022-07-27T18:55:25.113Z,19.77
2022-07-27T18:57:52.920Z,19.55
2022-07-27T19:00:20.964Z,19.65
2022-07-27T19:02:48.308Z,19.38
2022-07-27T19:05:22.272Z,19.32
2022-07-27T19:07:59.919Z,19.32
2022-07-27T19:10:27.135Z,19.28
2022-07-27T19:12:55.842Z,18.98
2022-07-27T19:15:22.993Z,19.18
2022-07-27T19:17:50.100Z,19.14
2022-07-27T19:20:17.139Z,19.05
2022-07-27T19:22:47.313Z,18.96
2022-07-27T19:25:15.628Z,18.93
2022-07-27T19:27:43.322Z,18.51
2022-07-27T19:30:12.236Z,18.71
2022-07-27T19:32:39.595Z,18.43
2022-07-27T19:35:07.892Z,18.49
2022-07-27T19:37:35.617Z,18.35
2022-07-27T19:40:20.133Z,18.14
2022-07-27T19:42:47.720Z,17.88
2022-07-27T19:45:14.809Z,17.82
2022-07-27T19:47:41.807Z,17.85
2022-07-27T19:50:09.289Z,17.94
2022-07-27T19:52:36.522Z,17.78
2022-07-27T19:55:06.268Z,17.52
2022-07-27T19:57:33.495Z,17.54
2022-07-27T20:00:02.515Z,17.52
2022-07-27T20:02:31.899Z,17.53
2022-07-27T20:04:59.099Z,17.00
2022-07-27T20:07:26.130Z,17.35
2022-07-27T20:09:53.175Z,17.21
2022-07-27T20:12:21.355Z,17.40
2022-07-27T20:14:48.452Z,17.08
2022-07-27T20:17:15.469Z,17.16
2022-07-27T20:19:42.614Z,17.01
2022-07-27T20:22:09.724Z,16.91
2022-07-27T20:24:36.790Z,16.81
2022-07-27T20:27:04.027Z,16.91
2022-07-27T20:29:31.470Z,16.73
2022-07-27T20:31:59.017Z,16.36
2022-07-27T20:34:26.033Z,16.63
2022-07-27T20:36:53.978Z,16.48
2022-07-27T20:39:21.533Z,16.40
2022-07-27T20:41:48.831Z,16.26
2022-07-27T20:44:15.970Z,16.27
2022-07-27T20:46:43.408Z,16.18
2022-07-27T20:49:10.750Z,16.21
2022-07-27T20:51:39.352Z,16.11
2022-07-27T20:54:06.384Z,15.94
2022-07-27T20:56:33.442Z,15.88
2022-07-27T20:59:00.493Z,16.05
2022-07-27T21:01:27.638Z,15.97
2022-07-27T21:03:54.779Z,15.97
2022-07-27T21:06:21.991Z,15.90
2022-07-27T21:08:49.024Z,15.83
2022-07-27T21:11:16.200Z,15.78
2022-07-27T21:13:43.322Z,15.75
2022-07-27T21:16:10.390Z,15.67
2022-07-27T21:18:37.719Z,15.58
2022-07-27T21:21:04.795Z,15.54
2022-07-27T21:24:11.900Z,15.63
2022-07-27T21:26:39.549Z,15.56
2022-07-27T21:29:06.932Z,15.09
2022-07-27T21:31:35.714Z,15.00
2022-07-27T21:34:02.786Z,15.29
2022-07-27T21:36:29.903Z,15.21
2022-07-27T21:38:57.229Z,15.08
2022-07-27T21:41:24.378Z,15.06
2022-07-27T21:43:51.441Z,15.05
2022-07-27T21:46:18.571Z,15.01
2022-07-27T21:48:45.949Z,15.03
2022-07-27T21:51:14.643Z,14.96
2022-07-27T21:53:42.656Z,14.92
2022-07-27T21:56:09.678Z,14.86
2022-07-27T21:58:36.717Z,14.80
2022-07-27T22:01:03.997Z,14.57
2022-07-27T22:03:31.123Z,14.59
2022-07-27T22:05:58.205Z,14.50
2022-07-27T22:08:26.427Z,14.68
2022-07-27T22:10:53.860Z,14.44
2022-07-27T22:13:20.916Z,14.43
2022-07-27T22:15:50.892Z,14.53
2022-07-27T22:18:18.151Z,14.42
2022-07-27T22:20:45.215Z,14.29
2022-07-27T22:23:12.231Z,14.22
2022-07-27T22:25:39.626Z,14.13
2022-07-27T22:28:06.821Z,13.78
2022-07-27T22:30:33.978Z,13.52
2022-07-27T22:33:01.404Z,13.62
2022-07-27T22:35:28.510Z,13.77
2022-07-27T22:37:55.541Z,13.83
2022-07-27T22:40:22.828Z,13.85
2022-07-27T22:42:49.844Z,13.87
2022-07-27T22:45:17.602Z,13.82
2022-07-27T22:47:44.691Z,13.83
2022-07-27T22:50:18.181Z,13.61
2022-07-27T22:52:45.803Z,13.63
2022-07-27T22:55:12.827Z,13.54
2022-07-27T22:57:39.833Z,13.52
2022-07-27T23:00:08.920Z,13.52
2022-07-27T23:02:36.074Z,13.53
2022-07-27T23:05:03.679Z,13.47
2022-07-27T23:07:31.197Z,13.48
2022-07-27T23:09:58.266Z,13.40
2022-07-27T23:12:25.293Z,13.36
2022-07-27T23:14:52.401Z,13.31
2022-07-27T23:17:19.438Z,13.12
2022-07-27T23:19:46.420Z,13.13
2022-07-27T23:22:13.518Z,13.03
2022-07-27T23:24:44.320Z,13.06
2022-07-27T23:27:12.152Z,12.90
2022-07-27T23:29:39.249Z,12.88
2022-07-27T23:32:08.244Z,12.95
2022-07-27T23:34:36.347Z,12.85
2022-07-27T23:37:03.410Z,12.92
2022-07-27T23:39:30.504Z,12.80
2022-07-27T23:41:57.512Z,12.63
2022-07-27T23:44:24.502Z,12.72
2022-07-27T23:46:51.599Z,12.81
2022-07-27T23:49:19.178Z,12.66
2022-07-27T23:51:46.242Z,12.69
2022-07-27T23:54:13.720Z,12.35
2022-07-27T23:56:40.969Z,12.60
2022-07-27T23:59:08.013Z,12.61
